createdAt,value
2022-10-09T00:00:01.160Z,4.57
2022-10-09T00:02:41.288Z,3.55
2022-10-09T00:05:11.919Z,2.83
2022-10-09T00:10:12.176Z,2.70
2022-10-09T00:15:12.721Z,2.80
2022-10-09T00:17:42.761Z,3.10
2022-10-09T00:20:13.764Z,3.65
2022-10-09T00:22:44.795Z,3.05
2022-10-09T00:25:15.350Z,3.00
2022-10-09T00:27:45.155Z,2.92
2022-10-09T00:30:15.665Z,4.13
2022-10-09T00:32:45.999Z,3.85
2022-10-09T00:35:16.599Z,3.67
2022-10-09T00:37:46.701Z,3.20
2022-10-09T00:40:18.295Z,3.58
2022-10-09T00:42:50.119Z,4.30
2022-10-09T00:45:23.411Z,3.63
2022-10-09T00:48:13.721Z,3.40
2022-10-09T00:53:21.928Z,3.80
2022-10-09T00:55:53.523Z,3.90
2022-10-09T00:58:25.127Z,7.68
2022-10-09T01:00:55.954Z,8.82
2022-10-09T01:03:25.989Z,12.93
2022-10-09T01:06:02.400Z,7.53
2022-10-09T01:08:50.511Z,4.90
2022-10-09T01:11:54.682Z,4.10
2022-10-09T01:14:33.152Z,4.47
2022-10-09T01:17:27.797Z,5.63
2022-10-09T01:20:16.011Z,7.80
2022-10-09T01:23:09.167Z,7.38
2022-10-09T01:26:21.338Z,7.90
2022-10-09T01:28:56.979Z,8.02
2022-10-09T01:31:31.362Z,6.38
2022-10-09T01:34:03.256Z,10.18
2022-10-09T01:36:34.188Z,12.77
2022-10-09T01:39:06.919Z,10.52
2022-10-09T01:41:37.111Z,7.03
2022-10-09T01:44:20.982Z,5.13
2022-10-09T01:46:51.322Z,4.22
2022-10-09T01:49:30.205Z,3.90
2022-10-09T01:52:05.608Z,3.33
2022-10-09T01:55:01.590Z,4.25
2022-10-09T01:57:54.601Z,3.38
2022-10-09T02:00:25.179Z,3.65
2022-10-09T02:02:56.710Z,3.30
2022-10-09T02:05:30.291Z,3.15
2022-10-09T02:08:00.727Z,3.45
2022-10-09T02:10:32.068Z,3.40
2022-10-09T02:13:03.047Z,3.25
2022-10-09T02:15:57.122Z,3.67
2022-10-09T02:18:43.125Z,2.80
2022-10-09T02:21:19.923Z,3.35
2022-10-09T02:23:52.311Z,3.72
2022-10-09T02:26:23.210Z,3.70
2022-10-09T02:31:32.004Z,4.78
2022-10-09T02:34:05.984Z,4.00
2022-10-09T02:36:37.475Z,3.70
2022-10-09T02:39:08.454Z,4.32
2022-10-09T02:41:39.130Z,4.95
2022-10-09T02:46:41.696Z,4.80
2022-10-09T02:49:11.808Z,5.35
2022-10-09T02:51:42.433Z,5.10
2022-10-09T02:56:41.783Z,4.35
2022-10-09T02:59:12.194Z,4.97
2022-10-09T03:01:42.322Z,4.90
2022-10-09T03:04:12.756Z,4.75
2022-10-09T03:06:42.727Z,4.93
2022-10-09T03:09:13.072Z,5.15
2022-10-09T03:11:43.163Z,4.18
2022-10-09T03:14:13.642Z,3.83
2022-10-09T03:16:43.656Z,5.13
2022-10-09T03:21:43.522Z,5.45
2022-10-09T03:24:13.578Z,6.20
2022-10-09T03:26:43.914Z,5.75
2022-10-09T03:29:13.891Z,6.13
2022-10-09T03:31:52.466Z,5.50
2022-10-09T03:34:23.034Z,6.25
2022-10-09T03:39:22.526Z,5.03
2022-10-09T03:41:52.538Z,5.07
2022-10-09T03:46:53.712Z,4.80
2022-10-09T03:49:24.102Z,5.30
2022-10-09T03:51:54.105Z,4.38
2022-10-09T03:54:24.463Z,4.22
2022-10-09T03:56:54.310Z,3.50
2022-10-09T03:59:24.700Z,3.22
2022-10-09T04:01:55.467Z,3.70
2022-10-09T04:04:25.308Z,4.03
2022-10-09T04:06:55.798Z,4.85
2022-10-09T04:09:25.824Z,5.05
2022-10-09T04:11:59.191Z,4.97
2022-10-09T04:14:29.199Z,4.50
2022-10-09T04:16:59.654Z,4.20
2022-10-09T04:19:29.815Z,4.47
2022-10-09T04:22:00.476Z,4.55
2022-10-09T04:26:59.704Z,4.13
2022-10-09T04:29:30.201Z,4.25
2022-10-09T04:32:00.515Z,4.20
2022-10-09T04:34:31.005Z,5.25
2022-10-09T04:37:01.166Z,4.80
2022-10-09T04:39:31.680Z,4.93
2022-10-09T04:42:01.685Z,5.05
2022-10-09T04:44:32.132Z,4.38
2022-10-09T04:47:02.196Z,3.95
2022-10-09T04:49:32.650Z,2.55
2022-10-09T04:52:02.672Z,3.70
2022-10-09T04:54:34.023Z,3.20
2022-10-09T04:57:04.590Z,3.00
2022-10-09T04:59:35.982Z,2.80
2022-10-09T05:02:06.144Z,3.13
2022-10-09T05:04:36.959Z,3.47
2022-10-09T05:09:36.278Z,3.22
2022-10-09T05:12:06.847Z,3.13
2022-10-09T05:14:36.947Z,2.90
2022-10-09T05:17:15.185Z,3.58
2022-10-09T05:19:45.696Z,2.90
2022-10-09T05:22:16.179Z,2.88
2022-10-09T05:24:46.178Z,2.72
2022-10-09T05:27:16.680Z,3.00
2022-10-09T05:29:46.715Z,2.20
2022-10-09T05:32:17.171Z,3.22
2022-10-09T05:34:47.239Z,2.88
2022-10-09T05:37:17.686Z,2.42
2022-10-09T05:39:47.739Z,2.38
2022-10-09T05:42:18.205Z,2.40
2022-10-09T05:44:48.258Z,2.60
2022-10-09T05:47:20.809Z,2.30
2022-10-09T05:49:50.810Z,2.55
2022-10-09T05:52:21.263Z,1.90
2022-10-09T05:54:51.992Z,1.65
2022-10-09T05:57:22.425Z,1.77
2022-10-09T05:59:52.207Z,1.30
2022-10-09T06:02:22.709Z,1.27
2022-10-09T06:04:58.046Z,0.95
2022-10-09T06:07:48.972Z,1.08
2022-10-09T06:10:19.158Z,1.10
2022-10-09T06:12:49.896Z,1.10
2022-10-09T06:15:20.141Z,1.08
2022-10-09T06:17:50.624Z,0.90
2022-10-09T06:20:20.673Z,1.08
2022-10-09T06:22:51.327Z,0.95
2022-10-09T06:25:21.638Z,1.00
2022-10-09T06:27:52.150Z,0.90
2022-10-09T06:30:22.156Z,0.70
2022-10-09T06:32:52.661Z,1.00
2022-10-09T06:35:22.720Z,0.65
2022-10-09T06:37:53.209Z,0.98
2022-10-09T06:40:23.347Z,1.10
2022-10-09T06:42:53.834Z,0.73
2022-10-09T06:45:25.374Z,0.55
2022-10-09T06:47:55.822Z,0.80
2022-10-09T06:50:25.869Z,1.33
2022-10-09T06:52:56.337Z,1.00
2022-10-09T06:55:28.712Z,1.05
2022-10-09T06:57:59.609Z,0.80
2022-10-09T07:00:29.698Z,0.90
2022-10-09T07:03:00.478Z,0.68
2022-10-09T07:07:59.933Z,0.47
2022-10-09T07:10:30.302Z,1.05
2022-10-09T07:13:00.295Z,0.98
2022-10-09T07:18:00.111Z,0.43
2022-10-09T07:20:30.109Z,0.65
2022-10-09T07:25:29.738Z,0.60
2022-10-09T07:27:59.754Z,0.55
2022-10-09T07:30:30.180Z,0.77
2022-10-09T07:33:00.201Z,0.70
2022-10-09T07:38:03.380Z,0.30
2022-10-09T07:40:36.251Z,0.60
2022-10-09T07:43:06.604Z,0.52
2022-10-09T07:45:37.351Z,0.73
2022-10-09T07:48:08.039Z,0.60
2022-10-09T07:50:38.169Z,0.50
2022-10-09T07:53:09.907Z,0.63
2022-10-09T07:55:50.116Z,0.43
2022-10-09T07:58:23.685Z,0.35
2022-10-09T08:00:54.438Z,0.40
2022-10-09T08:03:25.824Z,0.45
2022-10-09T08:05:59.199Z,0.75
2022-10-09T08:08:31.226Z,0.73
2022-10-09T08:11:01.942Z,0.63
2022-10-09T08:13:32.288Z,0.80
2022-10-09T08:16:02.374Z,0.82
2022-10-09T08:21:04.472Z,0.70
2022-10-09T08:23:35.036Z,0.70
2022-10-09T08:26:06.561Z,0.73
2022-10-09T08:28:37.150Z,0.77
2022-10-09T08:31:18.412Z,0.68
2022-10-09T08:33:49.387Z,0.60
2022-10-09T08:36:19.374Z,0.80
2022-10-09T08:38:49.366Z,0.90
2022-10-09T08:44:07.902Z,1.27
2022-10-09T08:46:59.328Z,1.20
2022-10-09T08:49:51.582Z,0.63
2022-10-09T08:52:49.131Z,0.70
2022-10-09T08:55:30.386Z,0.65
2022-10-09T08:58:06.394Z,0.63
2022-10-09T09:00:46.119Z,0.98
2022-10-09T09:03:34.631Z,0.65
2022-10-09T09:06:26.241Z,0.70
2022-10-09T09:09:27.575Z,0.40
2022-10-09T09:12:05.771Z,0.57
2022-10-09T09:14:57.702Z,0.82
2022-10-09T09:18:01.027Z,0.60
2022-10-09T09:20:50.431Z,0.65
2022-10-09T09:23:38.845Z,0.85
2022-10-09T09:26:23.414Z,0.80
2022-10-09T09:28:59.886Z,0.93
2022-10-09T09:31:38.186Z,0.60
2022-10-09T09:34:22.072Z,0.95
2022-10-09T09:37:01.907Z,0.85
2022-10-09T09:40:30.935Z,1.42
2022-10-09T09:42:25.154Z,0.65
2022-10-09T09:45:02.783Z,1.50
2022-10-09T09:47:41.758Z,1.13
2022-10-09T09:50:28.611Z,1.15
2022-10-09T09:53:16.041Z,1.20
2022-10-09T09:55:46.159Z,1.17
2022-10-09T10:00:58.246Z,1.13
2022-10-09T10:03:29.432Z,1.10
2022-10-09T10:05:59.751Z,0.90
2022-10-09T10:08:35.081Z,0.93
2022-10-09T10:11:09.334Z,1.00
2022-10-09T10:13:48.033Z,0.75
2022-10-09T10:16:30.514Z,0.93
2022-10-09T10:19:00.952Z,0.95
2022-10-09T10:21:49.364Z,0.85
2022-10-09T10:24:28.806Z,1.08
2022-10-09T10:27:22.413Z,0.82
2022-10-09T10:29:57.626Z,0.80
2022-10-09T10:33:03.071Z,0.50
2022-10-09T10:35:42.169Z,1.05
2022-10-09T10:38:33.043Z,1.40
2022-10-09T10:41:32.880Z,0.50
2022-10-09T10:44:20.047Z,1.05
2022-10-09T10:47:01.433Z,1.23
2022-10-09T10:49:33.918Z,0.70
2022-10-09T10:52:19.147Z,0.77
2022-10-09T10:55:06.750Z,0.68
2022-10-09T10:57:47.190Z,0.98
2022-10-09T11:00:18.477Z,0.93
2022-10-09T11:02:55.655Z,0.77
2022-10-09T11:05:30.062Z,0.98
2022-10-09T11:08:26.455Z,0.50
2022-10-09T11:11:19.581Z,0.52
2022-10-09T11:14:16.578Z,0.75
2022-10-09T11:17:04.310Z,0.90
2022-10-09T11:19:45.097Z,0.52
2022-10-09T11:22:28.712Z,0.90
2022-10-09T11:25:13.002Z,1.25
2022-10-09T11:27:58.779Z,0.90
2022-10-09T11:30:34.252Z,0.77
2022-10-09T11:33:25.684Z,0.60
2022-10-09T11:36:05.723Z,0.57
2022-10-09T11:38:40.917Z,0.70
2022-10-09T11:41:14.254Z,0.47
2022-10-09T11:43:59.246Z,0.60
2022-10-09T11:46:53.424Z,0.90
2022-10-09T11:49:39.021Z,0.85
2022-10-09T11:52:44.415Z,0.57
2022-10-09T11:55:25.947Z,0.70
2022-10-09T11:57:56.351Z,0.60
2022-10-09T12:00:39.489Z,1.00
2022-10-09T12:05:50.755Z,1.05
2022-10-09T12:08:28.810Z,0.77
2022-10-09T12:11:14.650Z,1.08
2022-10-09T12:13:52.778Z,0.93
2022-10-09T12:16:37.763Z,1.15
2022-10-09T12:19:54.544Z,0.80
2022-10-09T12:22:32.225Z,1.08
2022-10-09T12:25:25.308Z,1.35
2022-10-09T12:27:57.545Z,1.40
2022-10-09T12:30:47.586Z,1.48
2022-10-09T12:33:31.822Z,1.05
2022-10-09T12:36:29.190Z,1.13
2022-10-09T12:38:59.761Z,0.85
2022-10-09T12:41:35.869Z,1.58
2022-10-09T12:44:08.554Z,1.45
2022-10-09T12:46:40.732Z,1.35
2022-10-09T12:49:22.019Z,1.25
2022-10-09T12:51:57.719Z,0.80
2022-10-09T12:54:31.292Z,0.70
2022-10-09T12:57:04.274Z,0.93
2022-10-09T12:59:35.073Z,0.85
2022-10-09T13:02:05.696Z,0.88
2022-10-09T13:04:36.451Z,0.60
2022-10-09T13:07:21.318Z,1.83
2022-10-09T13:09:59.134Z,1.60
2022-10-09T13:12:31.313Z,1.40
2022-10-09T13:15:05.683Z,1.08
2022-10-09T13:17:42.795Z,0.95
2022-10-09T13:20:19.028Z,1.35
2022-10-09T13:22:59.400Z,1.45
2022-10-09T13:25:41.816Z,1.48
2022-10-09T13:28:24.647Z,1.48
2022-10-09T13:30:55.216Z,1.25
2022-10-09T13:33:25.267Z,1.20
2022-10-09T13:38:25.873Z,1.40
2022-10-09T13:40:56.654Z,0.93
2022-10-09T13:45:59.186Z,1.35
2022-10-09T13:48:30.669Z,1.42
2022-10-09T13:51:01.302Z,1.27
2022-10-09T13:53:31.252Z,1.70
2022-10-09T13:56:01.386Z,1.35
2022-10-09T13:58:32.347Z,1.27
2022-10-09T14:01:02.694Z,1.08
2022-10-09T14:03:33.762Z,1.20
2022-10-09T14:06:05.357Z,1.40
2022-10-09T14:08:35.681Z,1.58
2022-10-09T14:11:05.820Z,1.52
2022-10-09T14:13:36.370Z,1.40
2022-10-09T14:16:07.859Z,2.10
2022-10-09T14:18:38.311Z,1.70
2022-10-09T14:21:16.247Z,1.90
2022-10-09T14:23:46.613Z,2.40
2022-10-09T14:26:16.650Z,1.70
2022-10-09T14:28:47.048Z,1.60
2022-10-09T14:31:18.691Z,1.75
2022-10-09T14:33:50.138Z,1.88
2022-10-09T14:36:21.377Z,1.48
2022-10-09T14:38:51.987Z,1.80
2022-10-09T14:41:25.176Z,1.27
2022-10-09T14:44:00.566Z,2.42
2022-10-09T14:46:34.989Z,2.40
2022-10-09T14:49:08.431Z,1.95
2022-10-09T14:51:40.695Z,1.83
2022-10-09T14:54:12.656Z,1.90
2022-10-09T14:56:42.828Z,2.33
2022-10-09T14:59:13.168Z,2.15
2022-10-09T15:01:43.318Z,1.85
2022-10-09T15:04:16.166Z,2.40
2022-10-09T15:06:46.202Z,2.08
2022-10-09T15:09:16.693Z,1.92
2022-10-09T15:11:46.785Z,1.77
2022-10-09T15:14:17.173Z,1.50
2022-10-09T15:16:47.382Z,1.55
2022-10-09T15:19:17.726Z,1.08
2022-10-09T15:21:47.894Z,1.60
2022-10-09T15:24:18.234Z,1.90
2022-10-09T15:26:48.419Z,1.80
2022-10-09T15:29:18.856Z,1.50
2022-10-09T15:34:20.661Z,1.65
2022-10-09T15:36:50.777Z,1.90
2022-10-09T15:39:21.146Z,1.08
2022-10-09T15:41:51.202Z,1.52
2022-10-09T15:44:22.457Z,1.73
2022-10-09T15:46:52.534Z,2.38
2022-10-09T15:49:26.100Z,1.90
2022-10-09T15:51:56.211Z,1.75
2022-10-09T15:54:26.638Z,1.58
2022-10-09T15:56:56.734Z,2.00
2022-10-09T15:59:27.175Z,1.88
2022-10-09T16:01:57.208Z,2.13
2022-10-09T16:04:30.587Z,1.83
2022-10-09T16:07:01.219Z,1.60
2022-10-09T16:09:35.928Z,1.30
2022-10-09T16:12:09.435Z,1.98
2022-10-09T16:14:39.538Z,1.98
2022-10-09T16:17:11.517Z,1.90
2022-10-09T16:19:41.685Z,2.10
2022-10-09T16:22:12.171Z,2.13
2022-10-09T16:24:42.182Z,2.42
2022-10-09T16:27:12.818Z,1.83
2022-10-09T16:32:13.530Z,1.52
2022-10-09T16:34:43.546Z,1.48
2022-10-09T16:37:14.100Z,2.10
2022-10-09T16:42:14.421Z,1.90
2022-10-09T16:44:44.658Z,2.00
2022-10-09T16:47:15.299Z,1.45
2022-10-09T16:49:45.395Z,1.83
2022-10-09T16:52:15.221Z,2.30
2022-10-09T16:54:46.800Z,2.00
2022-10-09T16:57:17.003Z,2.22
2022-10-09T16:59:48.470Z,2.42
2022-10-09T17:02:18.831Z,1.50
2022-10-09T17:04:49.867Z,1.90
2022-10-09T17:07:21.758Z,2.20
2022-10-09T17:09:53.706Z,1.90
2022-10-09T17:12:23.726Z,1.88
2022-10-09T17:14:56.873Z,1.73
2022-10-09T17:17:26.968Z,2.00
2022-10-09T17:19:57.463Z,2.03
2022-10-09T17:22:27.563Z,1.90
2022-10-09T17:24:58.458Z,2.20
2022-10-09T17:27:28.594Z,1.83
2022-10-09T17:29:59.027Z,2.20
2022-10-09T17:32:29.118Z,1.65
2022-10-09T17:34:59.550Z,1.50
2022-10-09T17:37:29.694Z,2.25
2022-10-09T17:40:00.162Z,1.50
2022-10-09T17:42:31.306Z,1.75
2022-10-09T17:45:01.856Z,1.90
2022-10-09T17:47:31.960Z,1.80
2022-10-09T17:50:02.600Z,2.13
2022-10-09T17:52:32.813Z,2.15
2022-10-09T17:55:03.267Z,1.52
2022-10-09T17:57:33.090Z,1.70
2022-10-09T18:00:03.566Z,1.75
2022-10-09T18:02:34.285Z,1.90
2022-10-09T18:05:05.110Z,2.42
2022-10-09T18:10:05.283Z,1.98
2022-10-09T18:12:35.308Z,1.90
2022-10-09T18:15:05.767Z,1.77
2022-10-09T18:17:36.263Z,1.50
2022-10-09T18:20:06.835Z,2.53
2022-10-09T18:22:40.624Z,1.60
2022-10-09T18:25:10.807Z,1.25
2022-10-09T18:27:41.503Z,1.45
2022-10-09T18:32:41.276Z,1.52
2022-10-09T18:35:11.783Z,1.83
2022-10-09T18:37:42.030Z,1.60
2022-10-09T18:40:12.847Z,1.77
2022-10-09T18:42:42.898Z,2.50
2022-10-09T18:45:17.321Z,2.50
2022-10-09T18:47:50.480Z,2.53
2022-10-09T18:50:20.948Z,2.05
2022-10-09T18:52:51.304Z,1.67
2022-10-09T18:55:22.986Z,1.70
2022-10-09T18:57:53.146Z,2.20
2022-10-09T19:00:23.571Z,1.40
2022-10-09T19:05:22.984Z,1.73
2022-10-09T19:07:53.545Z,1.20
2022-10-09T19:12:53.708Z,1.30
2022-10-09T19:15:24.360Z,1.63
2022-10-09T19:17:54.337Z,1.45
2022-10-09T19:20:24.252Z,1.30
2022-10-09T19:22:54.665Z,1.35
2022-10-09T19:27:53.867Z,1.38
2022-10-09T19:30:24.241Z,1.05
2022-10-09T19:35:24.748Z,1.20
2022-10-09T19:37:54.850Z,1.23
2022-10-09T19:40:26.180Z,1.20
2022-10-09T19:42:56.152Z,1.23
2022-10-09T19:45:27.261Z,1.25
2022-10-09T19:47:57.523Z,0.88
2022-10-09T19:50:29.095Z,1.30
2022-10-09T19:53:01.689Z,2.00
2022-10-09T19:55:34.748Z,1.90
2022-10-09T19:58:05.627Z,1.70
2022-10-09T20:00:36.294Z,1.58
2022-10-09T20:05:36.148Z,1.83
2022-10-09T20:08:07.758Z,1.67
2022-10-09T20:10:40.944Z,1.75
2022-10-09T20:13:11.298Z,1.55
2022-10-09T20:15:43.986Z,1.60
2022-10-09T20:18:14.484Z,2.10
2022-10-09T20:20:51.167Z,1.77
2022-10-09T20:23:21.791Z,2.30
2022-10-09T20:26:08.677Z,2.00
2022-10-09T20:28:41.098Z,1.77
2022-10-09T20:31:15.802Z,1.70
2022-10-09T20:33:47.734Z,1.83
2022-10-09T20:36:22.158Z,2.10
2022-10-09T20:38:52.758Z,1.70
2022-10-09T20:41:23.260Z,1.80
2022-10-09T20:43:55.078Z,2.15
2022-10-09T20:46:26.250Z,2.03
2022-10-09T20:48:56.959Z,2.00
2022-10-09T20:54:00.037Z,2.17
2022-10-09T20:56:32.489Z,2.13
2022-10-09T20:59:03.547Z,2.08
2022-10-09T21:01:33.718Z,2.10
2022-10-09T21:04:05.911Z,2.00
2022-10-09T21:06:37.173Z,1.80
2022-10-09T21:09:09.540Z,2.05
2022-10-09T21:11:41.406Z,1.58
2022-10-09T21:14:11.960Z,1.70
2022-10-09T21:16:45.041Z,2.00
2022-10-09T21:19:15.620Z,1.38
2022-10-09T21:21:50.690Z,1.45
2022-10-09T21:24:21.684Z,1.77
2022-10-09T21:26:51.715Z,2.03
2022-10-09T21:31:51.632Z,1.70
2022-10-09T21:34:21.651Z,1.80
2022-10-09T21:39:44.038Z,1.88
2022-10-09T21:44:43.567Z,2.10
2022-10-09T21:47:19.780Z,1.70
2022-10-09T21:49:53.153Z,1.60
2022-10-09T21:52:23.329Z,2.05
2022-10-09T21:54:53.752Z,2.40
2022-10-09T21:57:23.805Z,1.85
2022-10-09T22:02:23.550Z,2.00
2022-10-09T22:04:53.508Z,1.90
2022-10-09T22:07:23.974Z,2.28
2022-10-09T22:09:57.752Z,2.83
2022-10-09T22:12:27.926Z,2.00
2022-10-09T22:14:58.590Z,2.13
2022-10-09T22:17:28.726Z,1.88
2022-10-09T22:19:59.265Z,1.98
2022-10-09T22:22:32.519Z,1.77
2022-10-09T22:25:03.062Z,1.88
2022-10-09T22:27:33.136Z,1.40
2022-10-09T22:32:32.991Z,2.08
2022-10-09T22:35:03.006Z,1.55
2022-10-09T22:40:02.769Z,1.38
2022-10-09T22:42:32.960Z,1.60
2022-10-09T22:45:03.582Z,2.10
2022-10-09T22:47:34.914Z,1.27
2022-10-09T22:50:06.070Z,1.48
2022-10-09T22:52:36.297Z,1.10
2022-10-09T22:55:07.215Z,1.30
2022-10-09T22:57:38.539Z,1.38
2022-10-09T23:02:41.803Z,1.17
2022-10-09T23:05:12.337Z,0.95
2022-10-09T23:07:42.180Z,1.02
2022-10-09T23:12:43.820Z,0.90
2022-10-09T23:15:14.405Z,1.15
2022-10-09T23:17:44.354Z,1.33
2022-10-09T23:20:14.760Z,1.33
2022-10-09T23:22:44.983Z,1.00
2022-10-09T23:25:15.458Z,1.20
2022-10-09T23:27:45.495Z,1.48
2022-10-09T23:30:16.138Z,1.10
2022-10-09T23:32:46.310Z,1.33
2022-10-09T23:35:16.813Z,1.60
2022-10-09T23:37:46.931Z,1.27
2022-10-09T23:42:47.506Z,1.40
2022-10-09T23:45:19.160Z,0.82
2022-10-09T23:47:49.206Z,1.50
2022-10-09T23:50:20.136Z,1.20
2022-10-09T23:55:20.502Z,1.40
2022-10-09T23:57:52.419Z,1.40
